sensor_id;sensor_type;location;lat;lon;timestamp;temperature;humidity
73570;SHT30;61850;54.980;73.298;2023-02-11T00:01:32;-19.29;83.74
73570;SHT30;61850;54.980;73.298;2023-02-11T00:04:09;-19.29;83.68
73570;SHT30;61850;54.980;73.298;2023-02-11T00:06:36;-19.26;83.67
73570;SHT30;61850;54.980;73.298;2023-02-11T00:09:05;-19.36;83.83
73570;SHT30;61850;54.980;73.298;2023-02-11T00:11:31;-19.42;84.40
73570;SHT30;61850;54.980;73.298;2023-02-11T00:14:08;-19.45;84.75
73570;SHT30;61850;54.980;73.298;2023-02-11T00:16:38;-19.37;85.09
73570;SHT30;61850;54.980;73.298;2023-02-11T00:19:04;-19.36;85.19
73570;SHT30;61850;54.980;73.298;2023-02-11T00:21:31;-19.33;85.44
73570;SHT30;61850;54.980;73.298;2023-02-11T00:23:58;-19.27;85.48
73570;SHT30;61850;54.980;73.298;2023-02-11T00:26:31;-19.22;85.44
73570;SHT30;61850;54.980;73.298;2023-02-11T00:28:58;-19.19;85.30
73570;SHT30;61850;54.980;73.298;2023-02-11T00:31:26;-19.12;84.87
73570;SHT30;61850;54.980;73.298;2023-02-11T00:33:53;-19.11;84.38
73570;SHT30;61850;54.980;73.298;2023-02-11T00:36:27;-19.14;84.06
73570;SHT30;61850;54.980;73.298;2023-02-11T00:38:55;-19.11;83.93
73570;SHT30;61850;54.980;73.298;2023-02-11T00:41:31;-19.11;83.77
73570;SHT30;61850;54.980;73.298;2023-02-11T00:43:58;-19.15;83.72
73570;SHT30;61850;54.980;73.298;2023-02-11T00:46:24;-19.22;83.62
73570;SHT30;61850;54.980;73.298;2023-02-11T00:48:51;-19.37;83.80
73570;SHT30;61850;54.980;73.298;2023-02-11T00:51:20;-19.45;83.99
73570;SHT30;61850;54.980;73.298;2023-02-11T00:53:46;-19.50;84.26
73570;SHT30;61850;54.980;73.298;2023-02-11T00:56:22;-19.47;84.79
73570;SHT30;61850;54.980;73.298;2023-02-11T00:58:49;-19.47;84.72
73570;SHT30;61850;54.980;73.298;2023-02-11T01:01:16;-19.57;84.34
73570;SHT30;61850;54.980;73.298;2023-02-11T01:03:47;-19.71;84.03
73570;SHT30;61850;54.980;73.298;2023-02-11T01:06:18;-19.80;83.92
73570;SHT30;61850;54.980;73.298;2023-02-11T01:08:55;-19.91;83.87
73570;SHT30;61850;54.980;73.298;2023-02-11T01:11:21;-20.00;83.86
73570;SHT30;61850;54.980;73.298;2023-02-11T01:13:57;-20.09;83.83
73570;SHT30;61850;54.980;73.298;2023-02-11T01:16:24;-20.11;84.14
73570;SHT30;61850;54.980;73.298;2023-02-11T01:18:57;-20.16;84.30
73570;SHT30;61850;54.980;73.298;2023-02-11T01:21:29;-20.24;84.38
73570;SHT30;61850;54.980;73.298;2023-02-11T01:24:05;-20.24;84.54
73570;SHT30;61850;54.980;73.298;2023-02-11T01:26:35;-20.18;84.64
73570;SHT30;61850;54.980;73.298;2023-02-11T01:29:12;-20.25;84.35
73570;SHT30;61850;54.980;73.298;2023-02-11T01:31:38;-20.25;84.48
73570;SHT30;61850;54.980;73.298;2023-02-11T01:34:04;-20.29;84.48
73570;SHT30;61850;54.980;73.298;2023-02-11T01:36:30;-20.30;84.54
73570;SHT30;61850;54.980;73.298;2023-02-11T01:39:05;-20.37;84.40
73570;SHT30;61850;54.980;73.298;2023-02-11T01:41:33;-20.40;84.38
73570;SHT30;61850;54.980;73.298;2023-02-11T01:44:22;-20.47;84.18
73570;SHT30;61850;54.980;73.298;2023-02-11T01:47:00;-20.60;84.09
73570;SHT30;61850;54.980;73.298;2023-02-11T01:49:31;-20.66;84.05
73570;SHT30;61850;54.980;73.298;2023-02-11T01:54:34;-20.67;84.28
73570;SHT30;61850;54.980;73.298;2023-02-11T01:57:20;-20.63;84.60
73570;SHT30;61850;54.980;73.298;2023-02-11T01:59:55;-20.57;84.48
73570;SHT30;61850;54.980;73.298;2023-02-11T02:02:24;-20.61;84.33
73570;SHT30;61850;54.980;73.298;2023-02-11T02:05:02;-20.67;84.53
73570;SHT30;61850;54.980;73.298;2023-02-11T02:07:35;-20.64;84.46
73570;SHT30;61850;54.980;73.298;2023-02-11T02:10:08;-20.71;84.37
73570;SHT30;61850;54.980;73.298;2023-02-11T02:12:46;-20.78;84.42
73570;SHT30;61850;54.980;73.298;2023-02-11T02:15:26;-20.75;84.47
73570;SHT30;61850;54.980;73.298;2023-02-11T02:23:27;-20.67;85.43
73570;SHT30;61850;54.980;73.298;2023-02-11T02:28:36;-20.63;85.29
73570;SHT30;61850;54.980;73.298;2023-02-11T02:36:31;-20.71;85.07
73570;SHT30;61850;54.980;73.298;2023-02-11T02:39:01;-20.70;84.84
73570;SHT30;61850;54.980;73.298;2023-02-11T02:41:29;-20.74;84.55
73570;SHT30;61850;54.980;73.298;2023-02-11T02:44:00;-20.80;84.43
73570;SHT30;61850;54.980;73.298;2023-02-11T02:46:30;-20.89;84.22
73570;SHT30;61850;54.980;73.298;2023-02-11T02:49:02;-20.92;84.32
73570;SHT30;61850;54.980;73.298;2023-02-11T02:59:12;-20.94;84.84
73570;SHT30;61850;54.980;73.298;2023-02-11T03:07:28;-20.92;84.68
73570;SHT30;61850;54.980;73.298;2023-02-11T03:10:01;-20.87;84.49
73570;SHT30;61850;54.980;73.298;2023-02-11T03:12:37;-20.89;84.53
73570;SHT30;61850;54.980;73.298;2023-02-11T03:15:10;-20.84;84.64
73570;SHT30;61850;54.980;73.298;2023-02-11T03:17:38;-20.87;84.71
73570;SHT30;61850;54.980;73.298;2023-02-11T03:20:16;-20.80;84.68
73570;SHT30;61850;54.980;73.298;2023-02-11T03:22:54;-20.74;84.74
73570;SHT30;61850;54.980;73.298;2023-02-11T03:25:33;-20.73;84.50
73570;SHT30;61850;54.980;73.298;2023-02-11T03:30:35;-20.68;84.29
73570;SHT30;61850;54.980;73.298;2023-02-11T03:35:43;-20.64;84.47
73570;SHT30;61850;54.980;73.298;2023-02-11T03:38:15;-20.66;84.36
73570;SHT30;61850;54.980;73.298;2023-02-11T03:40:43;-20.60;84.27
73570;SHT30;61850;54.980;73.298;2023-02-11T03:45:38;-20.54;84.07
73570;SHT30;61850;54.980;73.298;2023-02-11T03:48:15;-20.52;83.91
73570;SHT30;61850;54.980;73.298;2023-02-11T03:50:44;-20.45;83.67
73570;SHT30;61850;54.980;73.298;2023-02-11T03:53:10;-20.45;83.40
73570;SHT30;61850;54.980;73.298;2023-02-11T03:55:39;-20.28;83.32
73570;SHT30;61850;54.980;73.298;2023-02-11T03:58:17;-20.22;83.13
73570;SHT30;61850;54.980;73.298;2023-02-11T04:00:48;-20.16;83.31
73570;SHT30;61850;54.980;73.298;2023-02-11T04:03:14;-20.11;83.22
73570;SHT30;61850;54.980;73.298;2023-02-11T04:05:40;-19.94;83.25
73570;SHT30;61850;54.980;73.298;2023-02-11T04:08:11;-19.84;83.07
73570;SHT30;61850;54.980;73.298;2023-02-11T04:10:47;-19.70;82.83
73570;SHT30;61850;54.980;73.298;2023-02-11T04:13:13;-19.62;82.49
73570;SHT30;61850;54.980;73.298;2023-02-11T04:15:40;-19.47;82.42
73570;SHT30;61850;54.980;73.298;2023-02-11T04:18:07;-19.49;82.33
73570;SHT30;61850;54.980;73.298;2023-02-11T04:20:33;-19.42;82.35
73570;SHT30;61850;54.980;73.298;2023-02-11T04:23:04;-19.27;82.16
73570;SHT30;61850;54.980;73.298;2023-02-11T04:25:30;-19.19;82.03
73570;SHT30;61850;54.980;73.298;2023-02-11T04:28:07;-19.14;82.05
73570;SHT30;61850;54.980;73.298;2023-02-11T04:30:34;-18.99;81.93
73570;SHT30;61850;54.980;73.298;2023-02-11T04:33:05;-18.95;81.92
73570;SHT30;61850;54.980;73.298;2023-02-11T04:35:41;-18.89;81.81
73570;SHT30;61850;54.980;73.298;2023-02-11T04:38:08;-18.88;81.69
73570;SHT30;61850;54.980;73.298;2023-02-11T04:40:35;-18.68;81.39
73570;SHT30;61850;54.980;73.298;2023-02-11T04:43:06;-18.67;81.21
73570;SHT30;61850;54.980;73.298;2023-02-11T04:45:32;-18.49;81.10
73570;SHT30;61850;54.980;73.298;2023-02-11T04:47:58;-18.49;80.77
73570;SHT30;61850;54.980;73.298;2023-02-11T04:50:32;-18.37;80.83
73570;SHT30;61850;54.980;73.298;2023-02-11T04:52:58;-18.21;80.63
73570;SHT30;61850;54.980;73.298;2023-02-11T04:55:24;-18.07;80.65
73570;SHT30;61850;54.980;73.298;2023-02-11T04:57:50;-17.94;80.32
73570;SHT30;61850;54.980;73.298;2023-02-11T05:00:17;-17.93;80.33
73570;SHT30;61850;54.980;73.298;2023-02-11T05:02:53;-17.73;80.41
73570;SHT30;61850;54.980;73.298;2023-02-11T05:05:21;-17.53;80.19
73570;SHT30;61850;54.980;73.298;2023-02-11T05:07:47;-17.53;79.90
73570;SHT30;61850;54.980;73.298;2023-02-11T05:10:22;-17.29;79.84
73570;SHT30;61850;54.980;73.298;2023-02-11T05:12:49;-17.15;79.53
73570;SHT30;61850;54.980;73.298;2023-02-11T05:15:15;-17.16;79.24
73570;SHT30;61850;54.980;73.298;2023-02-11T05:17:42;-17.18;79.00
73570;SHT30;61850;54.980;73.298;2023-02-11T05:20:13;-17.18;79.00
73570;SHT30;61850;54.980;73.298;2023-02-11T05:22:40;-17.11;79.15
73570;SHT30;61850;54.980;73.298;2023-02-11T05:25:06;-16.93;78.94
73570;SHT30;61850;54.980;73.298;2023-02-11T05:27:32;-16.88;78.65
73570;SHT30;61850;54.980;73.298;2023-02-11T05:29:58;-16.74;78.46
73570;SHT30;61850;54.980;73.298;2023-02-11T05:32:25;-16.67;78.13
73570;SHT30;61850;54.980;73.298;2023-02-11T05:34:51;-16.76;77.85
73570;SHT30;61850;54.980;73.298;2023-02-11T05:37:17;-16.64;77.99
73570;SHT30;61850;54.980;73.298;2023-02-11T05:39:43;-16.61;78.13
73570;SHT30;61850;54.980;73.298;2023-02-11T05:42:10;-16.35;77.96
73570;SHT30;61850;54.980;73.298;2023-02-11T05:44:44;-16.38;77.43
73570;SHT30;61850;54.980;73.298;2023-02-11T05:47:22;-16.38;77.48
73570;SHT30;61850;54.980;73.298;2023-02-11T05:49:58;-16.28;77.31
73570;SHT30;61850;54.980;73.298;2023-02-11T05:52:25;-16.16;77.25
73570;SHT30;61850;54.980;73.298;2023-02-11T05:54:55;-16.18;77.22
73570;SHT30;61850;54.980;73.298;2023-02-11T05:57:21;-16.14;76.99
73570;SHT30;61850;54.980;73.298;2023-02-11T05:59:48;-15.94;76.66
73570;SHT30;61850;54.980;73.298;2023-02-11T06:02:14;-16.04;76.20
73570;SHT30;61850;54.980;73.298;2023-02-11T06:04:40;-15.91;76.50
73570;SHT30;61850;54.980;73.298;2023-02-11T06:07:06;-15.76;76.08
73570;SHT30;61850;54.980;73.298;2023-02-11T06:09:35;-15.66;75.54
73570;SHT30;61850;54.980;73.298;2023-02-11T06:12:01;-15.59;75.50
73570;SHT30;61850;54.980;73.298;2023-02-11T06:14:27;-15.56;75.57
73570;SHT30;61850;54.980;73.298;2023-02-11T06:16:53;-15.63;75.72
73570;SHT30;61850;54.980;73.298;2023-02-11T06:19:19;-15.66;76.05
73570;SHT30;61850;54.980;73.298;2023-02-11T06:21:45;-15.57;75.98
73570;SHT30;61850;54.980;73.298;2023-02-11T06:24:22;-15.38;76.06
73570;SHT30;61850;54.980;73.298;2023-02-11T06:26:48;-15.25;75.46
73570;SHT30;61850;54.980;73.298;2023-02-11T06:29:15;-15.19;75.46
73570;SHT30;61850;54.980;73.298;2023-02-11T06:31:42;-15.21;75.44
73570;SHT30;61850;54.980;73.298;2023-02-11T06:34:08;-15.21;75.32
73570;SHT30;61850;54.980;73.298;2023-02-11T06:36:35;-15.24;75.62
73570;SHT30;61850;54.980;73.298;2023-02-11T06:39:11;-15.19;75.82
73570;SHT30;61850;54.980;73.298;2023-02-11T06:41:37;-15.04;75.89
73570;SHT30;61850;54.980;73.298;2023-02-11T06:44:08;-15.28;75.86
73570;SHT30;61850;54.980;73.298;2023-02-11T06:46:34;-15.12;76.33
73570;SHT30;61850;54.980;73.298;2023-02-11T06:49:02;-15.12;76.25
73570;SHT30;61850;54.980;73.298;2023-02-11T06:51:28;-14.91;75.92
73570;SHT30;61850;54.980;73.298;2023-02-11T06:54:05;-14.81;75.34
73570;SHT30;61850;54.980;73.298;2023-02-11T06:56:31;-14.80;75.26
73570;SHT30;61850;54.980;73.298;2023-02-11T06:58:58;-14.83;75.46
73570;SHT30;61850;54.980;73.298;2023-02-11T07:01:34;-14.65;75.13
73570;SHT30;61850;54.980;73.298;2023-02-11T07:04:07;-14.62;74.70
73570;SHT30;61850;54.980;73.298;2023-02-11T07:06:34;-14.31;74.62
73570;SHT30;61850;54.980;73.298;2023-02-11T07:09:02;-14.31;74.30
73570;SHT30;61850;54.980;73.298;2023-02-11T07:11:29;-14.34;74.12
73570;SHT30;61850;54.980;73.298;2023-02-11T07:13:59;-14.22;74.41
73570;SHT30;61850;54.980;73.298;2023-02-11T07:16:36;-14.32;74.31
73570;SHT30;61850;54.980;73.298;2023-02-11T07:19:03;-14.14;74.21
73570;SHT30;61850;54.980;73.298;2023-02-11T07:21:40;-14.13;74.36
73570;SHT30;61850;54.980;73.298;2023-02-11T07:24:16;-14.00;74.26
73570;SHT30;61850;54.980;73.298;2023-02-11T07:26:43;-14.06;74.35
73570;SHT30;61850;54.980;73.298;2023-02-11T07:29:10;-13.94;73.91
73570;SHT30;61850;54.980;73.298;2023-02-11T07:31:36;-14.00;74.10
73570;SHT30;61850;54.980;73.298;2023-02-11T07:34:02;-13.91;74.04
73570;SHT30;61850;54.980;73.298;2023-02-11T07:36:29;-13.90;74.34
73570;SHT30;61850;54.980;73.298;2023-02-11T07:38:56;-13.97;74.58
73570;SHT30;61850;54.980;73.298;2023-02-11T07:41:32;-13.93;74.68
73570;SHT30;61850;54.980;73.298;2023-02-11T07:44:01;-13.98;74.75
73570;SHT30;61850;54.980;73.298;2023-02-11T07:46:27;-13.69;74.92
73570;SHT30;61850;54.980;73.298;2023-02-11T07:48:53;-13.56;74.54
73570;SHT30;61850;54.980;73.298;2023-02-11T07:53:46;-13.55;73.98
73570;SHT30;61850;54.980;73.298;2023-02-11T07:56:14;-13.56;74.23
73570;SHT30;61850;54.980;73.298;2023-02-11T07:58:40;-13.66;74.00
73570;SHT30;61850;54.980;73.298;2023-02-11T08:01:13;-13.53;74.10
73570;SHT30;61850;54.980;73.298;2023-02-11T08:03:39;-13.50;74.04
73570;SHT30;61850;54.980;73.298;2023-02-11T08:06:08;-13.42;74.02
73570;SHT30;61850;54.980;73.298;2023-02-11T08:08:34;-13.38;73.79
73570;SHT30;61850;54.980;73.298;2023-02-11T08:11:05;-13.39;73.87
73570;SHT30;61850;54.980;73.298;2023-02-11T08:13:36;-13.49;73.94
73570;SHT30;61850;54.980;73.298;2023-02-11T08:16:07;-13.24;74.11
73570;SHT30;61850;54.980;73.298;2023-02-11T08:18:34;-13.21;73.84
73570;SHT30;61850;54.980;73.298;2023-02-11T08:21:05;-13.29;73.77
73570;SHT30;61850;54.980;73.298;2023-02-11T08:23:32;-13.32;74.28
73570;SHT30;61850;54.980;73.298;2023-02-11T08:26:02;-13.39;74.33
73570;SHT30;61850;54.980;73.298;2023-02-11T08:28:29;-13.35;74.38
73570;SHT30;61850;54.980;73.298;2023-02-11T08:30:55;-13.17;74.27
73570;SHT30;61850;54.980;73.298;2023-02-11T08:33:31;-13.08;74.13
73570;SHT30;61850;54.980;73.298;2023-02-11T08:35:58;-13.03;74.03
73570;SHT30;61850;54.980;73.298;2023-02-11T08:38:24;-13.10;74.16
73570;SHT30;61850;54.980;73.298;2023-02-11T08:40:50;-13.11;74.69
73570;SHT30;61850;54.980;73.298;2023-02-11T08:43:19;-13.06;74.48
73570;SHT30;61850;54.980;73.298;2023-02-11T08:45:45;-13.10;74.12
73570;SHT30;61850;54.980;73.298;2023-02-11T08:48:11;-12.97;74.21
73570;SHT30;61850;54.980;73.298;2023-02-11T08:50:42;-12.94;74.27
73570;SHT30;61850;54.980;73.298;2023-02-11T08:53:08;-13.11;74.75
73570;SHT30;61850;54.980;73.298;2023-02-11T08:55:34;-13.03;75.26
73570;SHT30;61850;54.980;73.298;2023-02-11T08:58:05;-13.03;75.17
73570;SHT30;61850;54.980;73.298;2023-02-11T09:00:32;-13.04;75.32
73570;SHT30;61850;54.980;73.298;2023-02-11T09:02:58;-13.07;75.42
73570;SHT30;61850;54.980;73.298;2023-02-11T09:05:26;-13.00;75.51
73570;SHT30;61850;54.980;73.298;2023-02-11T09:07:52;-13.01;75.59
73570;SHT30;61850;54.980;73.298;2023-02-11T09:10:18;-13.01;75.61
73570;SHT30;61850;54.980;73.298;2023-02-11T09:12:44;-12.83;75.42
73570;SHT30;61850;54.980;73.298;2023-02-11T09:15:10;-12.83;75.02
73570;SHT30;61850;54.980;73.298;2023-02-11T09:17:37;-12.94;75.36
73570;SHT30;61850;54.980;73.298;2023-02-11T09:20:03;-12.81;75.13
73570;SHT30;61850;54.980;73.298;2023-02-11T09:22:29;-12.83;75.07
73570;SHT30;61850;54.980;73.298;2023-02-11T09:24:55;-12.79;75.29
73570;SHT30;61850;54.980;73.298;2023-02-11T09:27:21;-12.72;74.94
73570;SHT30;61850;54.980;73.298;2023-02-11T09:29:47;-12.76;74.65
73570;SHT30;61850;54.980;73.298;2023-02-11T09:32:13;-12.86;75.14
73570;SHT30;61850;54.980;73.298;2023-02-11T09:34:39;-12.79;75.56
73570;SHT30;61850;54.980;73.298;2023-02-11T09:37:07;-12.69;75.10
73570;SHT30;61850;54.980;73.298;2023-02-11T09:39:33;-12.60;74.52
73570;SHT30;61850;54.980;73.298;2023-02-11T09:44:31;-12.69;74.48
73570;SHT30;61850;54.980;73.298;2023-02-11T09:47:02;-12.77;74.55
73570;SHT30;61850;54.980;73.298;2023-02-11T09:49:43;-12.67;74.58
73570;SHT30;61850;54.980;73.298;2023-02-11T09:54:44;-12.60;74.13
73570;SHT30;61850;54.980;73.298;2023-02-11T09:57:17;-12.70;74.36
73570;SHT30;61850;54.980;73.298;2023-02-11T09:59:43;-12.66;74.27
73570;SHT30;61850;54.980;73.298;2023-02-11T10:02:24;-12.66;73.95
73570;SHT30;61850;54.980;73.298;2023-02-11T10:08:00;-12.81;74.21
73570;SHT30;61850;54.980;73.298;2023-02-11T10:10:34;-13.00;74.30
73570;SHT30;61850;54.980;73.298;2023-02-11T10:15:49;-13.04;74.73
73570;SHT30;61850;54.980;73.298;2023-02-11T10:18:38;-12.81;74.44
73570;SHT30;61850;54.980;73.298;2023-02-11T10:23:50;-12.48;72.56
73570;SHT30;61850;54.980;73.298;2023-02-11T10:26:18;-12.41;72.58
73570;SHT30;61850;54.980;73.298;2023-02-11T10:28:46;-12.39;72.58
73570;SHT30;61850;54.980;73.298;2023-02-11T10:31:17;-12.46;72.18
73570;SHT30;61850;54.980;73.298;2023-02-11T10:33:50;-12.60;72.30
73570;SHT30;61850;54.980;73.298;2023-02-11T10:36:18;-12.70;72.74
73570;SHT30;61850;54.980;73.298;2023-02-11T10:38:46;-12.86;73.30
73570;SHT30;61850;54.980;73.298;2023-02-11T10:41:12;-12.88;73.63
73570;SHT30;61850;54.980;73.298;2023-02-11T10:43:41;-12.98;74.04
73570;SHT30;61850;54.980;73.298;2023-02-11T10:46:18;-12.88;73.76
73570;SHT30;61850;54.980;73.298;2023-02-11T10:48:50;-12.90;73.35
73570;SHT30;61850;54.980;73.298;2023-02-11T10:51:29;-12.88;73.41
73570;SHT30;61850;54.980;73.298;2023-02-11T10:56:34;-13.00;72.92
73570;SHT30;61850;54.980;73.298;2023-02-11T10:59:16;-13.04;72.78
73570;SHT30;61850;54.980;73.298;2023-02-11T11:01:51;-13.18;73.04
73570;SHT30;61850;54.980;73.298;2023-02-11T11:06:58;-13.35;73.15
73570;SHT30;61850;54.980;73.298;2023-02-11T11:09:43;-13.39;73.53
73570;SHT30;61850;54.980;73.298;2023-02-11T11:12:45;-13.39;73.60
73570;SHT30;61850;54.980;73.298;2023-02-11T11:17:37;-12.79;72.71
73570;SHT30;61850;54.980;73.298;2023-02-11T11:20:27;-12.42;71.09
73570;SHT30;61850;54.980;73.298;2023-02-11T11:23:15;-12.27;70.21
73570;SHT30;61850;54.980;73.298;2023-02-11T11:25:40;-12.11;69.25
73570;SHT30;61850;54.980;73.298;2023-02-11T11:28:17;-12.11;68.71
73570;SHT30;61850;54.980;73.298;2023-02-11T11:30:45;-12.38;68.69
73570;SHT30;61850;54.980;73.298;2023-02-11T11:33:18;-12.52;69.01
73570;SHT30;61850;54.980;73.298;2023-02-11T11:35:51;-12.56;69.09
73570;SHT30;61850;54.980;73.298;2023-02-11T11:38:20;-12.72;69.41
73570;SHT30;61850;54.980;73.298;2023-02-11T11:43:58;-13.17;69.86
73570;SHT30;61850;54.980;73.298;2023-02-11T11:46:29;-13.49;70.40
73570;SHT30;61850;54.980;73.298;2023-02-11T11:49:43;-13.66;71.00
73570;SHT30;61850;54.980;73.298;2023-02-11T11:51:44;-13.77;71.29
73570;SHT30;61850;54.980;73.298;2023-02-11T11:54:23;-14.04;71.85
73570;SHT30;61850;54.980;73.298;2023-02-11T11:57:25;-14.24;72.64
73570;SHT30;61850;54.980;73.298;2023-02-11T11:59:44;-14.55;73.32
73570;SHT30;61850;54.980;73.298;2023-02-11T12:07:32;-15.03;75.01
73570;SHT30;61850;54.980;73.298;2023-02-11T12:18:23;-15.43;76.46
73570;SHT30;61850;54.980;73.298;2023-02-11T12:21:20;-15.49;76.55
73570;SHT30;61850;54.980;73.298;2023-02-11T12:26:32;-15.67;77.14
73570;SHT30;61850;54.980;73.298;2023-02-11T12:29:04;-15.71;77.17
73570;SHT30;61850;54.980;73.298;2023-02-11T12:31:39;-15.77;77.30
73570;SHT30;61850;54.980;73.298;2023-02-11T12:37:25;-15.91;77.70
73570;SHT30;61850;54.980;73.298;2023-02-11T12:50:45;-16.08;78.58
73570;SHT30;61850;54.980;73.298;2023-02-11T12:55:50;-16.14;79.08
73570;SHT30;61850;54.980;73.298;2023-02-11T12:58:17;-16.18;79.23
73570;SHT30;61850;54.980;73.298;2023-02-11T13:00:59;-16.21;79.35
73570;SHT30;61850;54.980;73.298;2023-02-11T13:03:30;-16.24;79.64
73570;SHT30;61850;54.980;73.298;2023-02-11T13:06:04;-16.25;79.78
73570;SHT30;61850;54.980;73.298;2023-02-11T13:08:42;-16.29;79.83
73570;SHT30;61850;54.980;73.298;2023-02-11T13:11:17;-16.30;79.80
73570;SHT30;61850;54.980;73.298;2023-02-11T13:16:17;-16.38;79.80
73570;SHT30;61850;54.980;73.298;2023-02-11T13:26:59;-16.50;79.97
73570;SHT30;61850;54.980;73.298;2023-02-11T13:29:51;-16.46;79.90
73570;SHT30;61850;54.980;73.298;2023-02-11T13:32:22;-16.53;79.81
73570;SHT30;61850;54.980;73.298;2023-02-11T13:34:53;-16.57;79.97
73570;SHT30;61850;54.980;73.298;2023-02-11T13:39:59;-16.57;80.59
73570;SHT30;61850;54.980;73.298;2023-02-11T13:42:26;-16.46;80.77
73570;SHT30;61850;54.980;73.298;2023-02-11T13:44:53;-16.53;80.90
73570;SHT30;61850;54.980;73.298;2023-02-11T13:47:29;-16.53;81.21
73570;SHT30;61850;54.980;73.298;2023-02-11T13:50:06;-16.52;81.37
73570;SHT30;61850;54.980;73.298;2023-02-11T13:52:35;-16.49;81.28
73570;SHT30;61850;54.980;73.298;2023-02-11T13:57:43;-16.56;81.67
73570;SHT30;61850;54.980;73.298;2023-02-11T14:09:10;-16.60;82.05
73570;SHT30;61850;54.980;73.298;2023-02-11T14:12:36;-16.57;81.95
73570;SHT30;61850;54.980;73.298;2023-02-11T14:15:16;-16.60;81.97
73570;SHT30;61850;54.980;73.298;2023-02-11T14:17:47;-16.66;81.95
73570;SHT30;61850;54.980;73.298;2023-02-11T14:20:33;-16.66;81.72
73570;SHT30;61850;54.980;73.298;2023-02-11T14:23:00;-16.74;81.76
73570;SHT30;61850;54.980;73.298;2023-02-11T14:25:36;-16.76;81.82
73570;SHT30;61850;54.980;73.298;2023-02-11T14:28:21;-16.77;81.60
73570;SHT30;61850;54.980;73.298;2023-02-11T14:31:06;-16.84;81.54
73570;SHT30;61850;54.980;73.298;2023-02-11T14:41:42;-17.04;82.11
73570;SHT30;61850;54.980;73.298;2023-02-11T14:44:14;-17.03;82.02
73570;SHT30;61850;54.980;73.298;2023-02-11T14:46:51;-17.07;81.95
73570;SHT30;61850;54.980;73.298;2023-02-11T14:51:55;-17.15;82.14
73570;SHT30;61850;54.980;73.298;2023-02-11T14:54:23;-17.18;82.22
73570;SHT30;61850;54.980;73.298;2023-02-11T14:57:12;-17.28;82.31
73570;SHT30;61850;54.980;73.298;2023-02-11T14:59:39;-17.35;82.56
73570;SHT30;61850;54.980;73.298;2023-02-11T15:02:23;-17.35;82.56
73570;SHT30;61850;54.980;73.298;2023-02-11T15:04:50;-17.49;82.66
73570;SHT30;61850;54.980;73.298;2023-02-11T15:07:27;-17.46;82.64
73570;SHT30;61850;54.980;73.298;2023-02-11T15:09:53;-17.52;82.52
73570;SHT30;61850;54.980;73.298;2023-02-11T15:12:21;-17.53;82.48
73570;SHT30;61850;54.980;73.298;2023-02-11T15:14:50;-17.62;82.60
73570;SHT30;61850;54.980;73.298;2023-02-11T15:17:20;-17.62;82.70
73570;SHT30;61850;54.980;73.298;2023-02-11T15:19:47;-17.67;82.71
73570;SHT30;61850;54.980;73.298;2023-02-11T15:22:19;-17.66;82.70
73570;SHT30;61850;54.980;73.298;2023-02-11T15:27:52;-17.62;82.37
73570;SHT30;61850;54.980;73.298;2023-02-11T15:32:54;-17.70;82.48
73570;SHT30;61850;54.980;73.298;2023-02-11T15:35:28;-17.73;82.27
73570;SHT30;61850;54.980;73.298;2023-02-11T15:38:01;-17.83;82.20
73570;SHT30;61850;54.980;73.298;2023-02-11T15:40:34;-17.84;82.23
73570;SHT30;61850;54.980;73.298;2023-02-11T15:43:01;-17.91;82.01
73570;SHT30;61850;54.980;73.298;2023-02-11T15:45:35;-18.00;81.82
73570;SHT30;61850;54.980;73.298;2023-02-11T15:48:15;-18.07;81.84
73570;SHT30;61850;54.980;73.298;2023-02-11T15:50:47;-18.12;81.94
73570;SHT30;61850;54.980;73.298;2023-02-11T15:53:35;-18.18;82.13
73570;SHT30;61850;54.980;73.298;2023-02-11T15:56:06;-18.24;82.04
73570;SHT30;61850;54.980;73.298;2023-02-11T15:58:35;-18.26;82.18
73570;SHT30;61850;54.980;73.298;2023-02-11T16:01:02;-18.25;81.96
73570;SHT30;61850;54.980;73.298;2023-02-11T16:03:35;-18.28;81.88
73570;SHT30;61850;54.980;73.298;2023-02-11T16:06:21;-18.37;81.77
73570;SHT30;61850;54.980;73.298;2023-02-11T16:08:55;-18.36;81.91
73570;SHT30;61850;54.980;73.298;2023-02-11T16:12:05;-18.33;81.92
73570;SHT30;61850;54.980;73.298;2023-02-11T16:14:22;-18.37;81.71
73570;SHT30;61850;54.980;73.298;2023-02-11T16:16:59;-18.43;81.77
73570;SHT30;61850;54.980;73.298;2023-02-11T16:19:26;-18.47;81.73
73570;SHT30;61850;54.980;73.298;2023-02-11T16:21:54;-18.63;82.01
73570;SHT30;61850;54.980;73.298;2023-02-11T16:24:36;-18.61;82.19
73570;SHT30;61850;54.980;73.298;2023-02-11T16:27:06;-18.67;82.23
73570;SHT30;61850;54.980;73.298;2023-02-11T16:29:33;-18.77;82.14
73570;SHT30;61850;54.980;73.298;2023-02-11T16:32:33;-18.87;82.55
73570;SHT30;61850;54.980;73.298;2023-02-11T16:34:54;-18.80;82.54
73570;SHT30;61850;54.980;73.298;2023-02-11T16:37:23;-18.78;82.35
73570;SHT30;61850;54.980;73.298;2023-02-11T16:39:58;-18.76;82.22
73570;SHT30;61850;54.980;73.298;2023-02-11T16:42:25;-18.88;82.33
73570;SHT30;61850;54.980;73.298;2023-02-11T16:44:54;-18.92;82.35
73570;SHT30;61850;54.980;73.298;2023-02-11T16:47:24;-18.99;82.50
73570;SHT30;61850;54.980;73.298;2023-02-11T16:49:50;-18.98;82.50
73570;SHT30;61850;54.980;73.298;2023-02-11T16:52:17;-18.99;82.60
73570;SHT30;61850;54.980;73.298;2023-02-11T16:54:44;-19.05;82.72
73570;SHT30;61850;54.980;73.298;2023-02-11T16:57:16;-19.01;82.70
73570;SHT30;61850;54.980;73.298;2023-02-11T16:59:53;-19.06;82.50
73570;SHT30;61850;54.980;73.298;2023-02-11T17:02:31;-19.14;82.52
73570;SHT30;61850;54.980;73.298;2023-02-11T17:04:59;-19.14;82.62
73570;SHT30;61850;54.980;73.298;2023-02-11T17:07:27;-19.12;82.69
73570;SHT30;61850;54.980;73.298;2023-02-11T17:09:55;-19.15;82.57
73570;SHT30;61850;54.980;73.298;2023-02-11T17:12:22;-19.19;82.55
73570;SHT30;61850;54.980;73.298;2023-02-11T17:15:01;-19.23;82.53
73570;SHT30;61850;54.980;73.298;2023-02-11T17:17:28;-19.19;82.40
73570;SHT30;61850;54.980;73.298;2023-02-11T17:19:55;-19.25;82.56
73570;SHT30;61850;54.980;73.298;2023-02-11T17:22:22;-19.37;83.02
73570;SHT30;61850;54.980;73.298;2023-02-11T17:24:48;-19.33;82.93
73570;SHT30;61850;54.980;73.298;2023-02-11T17:27:20;-19.36;82.96
73570;SHT30;61850;54.980;73.298;2023-02-11T17:29:46;-19.37;83.07
73570;SHT30;61850;54.980;73.298;2023-02-11T17:32:13;-19.36;83.11
73570;SHT30;61850;54.980;73.298;2023-02-11T17:34:44;-19.36;83.08
73570;SHT30;61850;54.980;73.298;2023-02-11T17:37:22;-19.36;82.98
73570;SHT30;61850;54.980;73.298;2023-02-11T17:39:53;-19.39;82.86
73570;SHT30;61850;54.980;73.298;2023-02-11T17:42:25;-19.39;82.93
73570;SHT30;61850;54.980;73.298;2023-02-11T17:44:52;-19.36;82.76